Time;durP1;ratioP1;P1;durP2;ratioP2;P2;SDS_P1;SDS_P2;PMS_P1;PMS_P2;Temp;Humidity;BMP_temperature;BMP_pressure;BME280_temperature;BME280_humidity;BME280_pressure;Samples;Min_cycle;Max_cycle;Signal;HPM_P1;HPM_P2
2021/10/02 00:34:25;;;;;;;;;1.00;1.00;;;;;24.96;42.37;101229.13;5073151;27;45379;-74
2021/10/02 00:44:41;;;;;;;;;5.00;3.75;;;;;25.10;41.97;101241.75;5075358;27;45497;-66
2021/10/02 00:47:08;;;;;;;;;2.00;2.00;;;;;25.09;42.15;101240.94;5073774;27;45532;-65
2021/10/02 00:49:40;;;;;;;;;6.00;3.00;;;;;25.07;41.79;101229.66;5075529;27;45922;-65
2021/10/02 00:52:10;;;;;;;;;2.50;2.50;;;;;25.02;41.95;101232.91;5073721;27;45506;-65
2021/10/02 00:54:36;;;;;;;;;2.25;2.00;;;;;25.02;42.19;101232.06;5076787;27;45780;-65
2021/10/02 00:57:02;;;;;;;;;3.00;3.00;;;;;24.99;41.99;101235.06;5069727;27;45407;-65
2021/10/02 00:59:30;;;;;;;;;4.00;2.00;;;;;24.88;42.19;101205.28;5075929;27;46089;-66
2021/10/02 01:02:16;;;;;;;;;1.25;1.25;;;;;24.96;41.98;101221.13;5074479;27;46012;-66
2021/10/02 01:04:56;;;;;;;;;1.75;1.75;;;;;24.96;42.22;101217.66;5072491;27;45496;-66
2021/10/02 01:07:43;;;;;;;;;2.50;2.50;;;;;24.95;42.18;101213.34;5072769;27;45436;-66
2021/10/02 01:10:29;;;;;;;;;3.00;3.00;;;;;24.96;42.21;101199.84;5072707;27;46096;-66
2021/10/02 01:13:09;;;;;;;;;2.00;2.00;;;;;25.00;42.13;101191.47;5074495;27;45451;-66
2021/10/02 01:15:59;;;;;;;;;1.75;1.25;;;;;25.03;42.16;101193.78;5076538;27;45391;-66
2021/10/02 01:18:45;;;;;;;;;5.00;3.00;;;;;25.03;42.09;101189.28;5082337;27;45469;-64
2021/10/02 01:21:37;;;;;;;;;4.75;3.00;;;;;25.06;42.37;101183.56;5076709;27;46149;-66
2021/10/02 01:24:05;;;;;;;;;2.00;2.00;;;;;25.09;41.99;101181.53;5075058;27;45487;-66
2021/10/02 01:26:43;;;;;;;;;4.75;3.75;;;;;25.12;41.81;101181.97;5074678;27;45478;-65
2021/10/02 01:29:11;;;;;;;;;2.25;2.25;;;;;25.13;41.73;101180.97;5071433;27;45756;-66
2021/10/02 01:31:43;;;;;;;;;4.50;3.25;;;;;25.16;41.96;101188.56;5076987;27;46518;-66
2021/10/02 01:34:23;;;;;;;;;4.00;2.00;;;;;25.09;41.83;101171.72;5071072;27;45500;-67
2021/10/02 01:47:55;;;;;;;;;2.25;2.25;;;;;25.00;41.58;101133.75;5074892;28;45325;-67
2021/10/02 01:50:26;;;;;;;;;2.75;2.25;;;;;25.16;41.32;101150.47;5060107;28;45395;-67
2021/10/02 01:52:55;;;;;;;;;3.00;3.00;;;;;25.14;41.26;101142.66;5059830;28;46355;-67
2021/10/02 01:55:23;;;;;;;;;4.25;2.50;;;;;25.13;41.38;101135.72;5059971;28;45376;-67
2021/10/02 01:57:52;;;;;;;;;2.00;1.33;;;;;25.04;41.28;101124.38;5060507;28;45395;-68
2021/10/02 02:00:18;;;;;;;;;2.00;2.00;;;;;25.12;41.38;101128.72;5060454;28;45476;-67
2021/10/02 02:02:47;;;;;;;;;3.75;2.50;;;;;25.11;41.42;101136.94;5073695;28;47116;-67
2021/10/02 02:05:15;;;;;;;;;3.00;3.00;;;;;25.11;41.20;101134.25;5060261;28;45441;-66
2021/10/02 02:07:44;;;;;;;;;2.00;2.00;;;;;25.00;41.37;101120.44;5060349;28;45589;-66
2021/10/02 02:10:12;;;;;;;;;3.25;2.50;;;;;25.05;41.37;101130.53;5062648;28;45593;-67
2021/10/02 02:12:39;;;;;;;;;4.00;2.00;;;;;25.09;41.39;101128.28;5074369;27;46493;-65
2021/10/02 02:15:07;;;;;;;;;6.00;3.00;;;;;25.05;41.61;101120.72;5076552;28;45549;-67
2021/10/02 02:17:37;;;;;;;;;4.00;3.00;;;;;25.06;41.36;101127.66;5076507;28;45371;-67
2021/10/02 02:20:05;;;;;;;;;2.33;1.00;;;;;25.06;41.54;101124.16;5076001;27;45410;-66
2021/10/02 02:22:30;;;;;;;;;5.00;2.75;;;;;25.04;41.25;101113.72;5075723;27;45310;-67
2021/10/02 02:24:56;;;;;;;;;3.00;3.00;;;;;24.93;41.50;101104.41;5075683;27;45428;-67
2021/10/02 02:27:22;;;;;;;;;1.00;1.00;;;;;24.97;41.16;101102.19;5074904;27;45361;-67
2021/10/02 02:29:48;;;;;;;;;3.00;3.00;;;;;24.95;41.00;101089.09;5077652;27;45525;-67
2021/10/02 02:32:16;;;;;;;;;3.00;1.25;;;;;25.00;41.49;101088.50;5076307;27;45408;-67
2021/10/02 02:34:41;;;;;;;;;2.00;2.00;;;;;25.01;41.40;101089.34;5075835;27;45580;-67
2021/10/02 02:37:07;;;;;;;;;1.25;1.25;;;;;25.00;41.37;101096.47;5075697;28;45517;-67
2021/10/02 02:39:32;;;;;;;;;2.00;2.00;;;;;24.98;41.23;101108.34;5075353;27;47655;-67
2021/10/02 02:41:57;;;;;;;;;1.00;1.00;;;;;24.98;41.40;101103.84;5075082;28;46838;-65
2021/10/02 02:44:25;;;;;;;;;3.00;3.00;;;;;24.99;41.29;101096.66;5075628;28;45459;-67
2021/10/02 02:47:00;;;;;;;;;3.00;3.00;;;;;24.99;41.29;101096.66;5075730;27;45299;-66
2021/10/02 02:49:54;;;;;;;;;2.00;2.00;;;;;24.97;41.13;101086.22;5075528;27;45362;-67
2021/10/02 02:53:05;;;;;;;;;3.00;1.50;;;;;24.97;41.22;101075.56;5073028;28;46314;-67
2021/10/02 02:55:39;;;;;;;;;3.00;1.00;;;;;24.85;41.02;101062.78;5073649;27;45465;-67
2021/10/02 02:58:07;;;;;;;;;3.00;2.25;;;;;24.96;41.20;101060.59;5075461;27;45643;-67
2021/10/02 03:00:40;;;;;;;;;3.00;3.00;;;;;24.96;41.46;101055.28;5075258;27;45430;-67
2021/10/02 03:03:10;;;;;;;;;3.00;3.00;;;;;24.94;41.08;101058.16;5075340;27;46179;-66
2021/10/02 03:05:39;;;;;;;;;1.50;1.50;;;;;24.94;41.22;101076.78;5077222;28;45399;-67
2021/10/02 03:08:09;;;;;;;;;3.00;1.25;;;;;24.94;41.20;101079.44;5074825;27;45341;-67
2021/10/02 03:10:35;;;;;;;;;1.00;1.00;;;;;24.82;41.11;101047.25;5075356;27;45455;-67
2021/10/02 03:13:04;;;;;;;;;4.00;2.25;;;;;24.94;40.90;101073.28;5074932;27;46048;-66
2021/10/02 03:15:32;;;;;;;;;2.00;2.00;;;;;24.94;41.21;101067.97;5075346;27;45396;-67
2021/10/02 03:17:58;;;;;;;;;3.33;2.00;;;;;24.94;41.06;101063.47;5075928;27;45314;-66
2021/10/02 03:20:24;;;;;;;;;1.33;1.33;;;;;24.94;41.22;101057.31;5073896;28;45358;-66
2021/10/02 03:22:53;;;;;;;;;3.00;1.33;;;;;24.94;40.90;101052.84;5073640;27;45341;-66
2021/10/02 03:25:22;;;;;;;;;1.67;1.33;;;;;24.88;41.00;101040.28;5066169;27;45500;-66
2021/10/02 03:27:48;;;;;;;;;2.00;2.00;;;;;24.93;41.07;101040.53;5059159;28;45615;-67
2021/10/02 03:30:14;;;;;;;;;2.00;2.00;;;;;24.92;40.76;101041.56;5040484;28;45472;-67
2021/10/02 03:32:40;;;;;;;;;1.25;1.00;;;;;24.83;40.95;101027.56;5056822;27;46335;-67
2021/10/02 03:35:06;;;;;;;;;1.00;1.00;;;;;24.92;40.98;101044.22;5062032;28;45312;-67
2021/10/02 03:37:31;;;;;;;;;2.00;2.00;;;;;24.91;41.39;101037.25;5061632;28;45368;-67
2021/10/02 03:39:57;;;;;;;;;2.00;2.00;;;;;24.92;41.16;101038.06;5062306;28;45331;-67
2021/10/02 03:42:23;;;;;;;;;1.75;1.75;;;;;24.91;41.08;101042.56;5058345;28;47401;-67
2021/10/02 03:44:51;;;;;;;;;2.50;2.50;;;;;24.91;40.90;101036.41;5060013;28;45427;-67
2021/10/02 03:47:18;;;;;;;;;2.00;2.00;;;;;24.87;41.00;101013.88;5061815;28;45453;-67
2021/10/02 03:49:46;;;;;;;;;0.75;0.75;;;;;24.89;41.29;101017.16;5061912;28;45471;-66
2021/10/02 03:52:13;;;;;;;;;3.50;2.75;;;;;24.88;41.51;101029.66;5061547;28;46157;-67
2021/10/02 03:54:39;;;;;;;;;1.33;1.33;;;;;24.89;41.09;101038.47;5060213;28;45355;-67
2021/10/02 03:57:05;;;;;;;;;1.00;1.00;;;;;24.89;40.94;101030.47;5059196;28;45570;-67
2021/10/02 03:59:31;;;;;;;;;3.75;1.00;;;;;24.86;41.18;101007.75;5060510;28;45548;-67
2021/10/02 04:01:56;;;;;;;;;0.67;0.67;;;;;24.87;40.87;101014.72;5070556;28;46809;-67
2021/10/02 04:04:22;;;;;;;;;4.00;2.00;;;;;24.81;41.06;101008.31;5074277;27;45500;-66
2021/10/02 04:06:51;;;;;;;;;2.00;2.00;;;;;24.80;40.81;100998.69;5074328;27;45363;-67
2021/10/02 04:09:17;;;;;;;;;1.00;1.00;;;;;24.87;41.35;100995.25;5057056;28;45414;-67
2021/10/02 04:11:43;;;;;;;;;2.00;1.25;;;;;24.84;40.99;101007.94;5074644;28;47020;-67
2021/10/02 04:14:08;;;;;;;;;2.33;2.00;;;;;24.72;41.11;100991.69;5068125;27;45367;-67
2021/10/02 04:16:33;;;;;;;;;2.00;1.67;;;;;24.85;41.09;101003.44;5074311;27;45366;-67
2021/10/02 04:18:59;;;;;;;;;2.00;2.00;;;;;24.84;41.27;101007.13;5074179;27;45307;-67
2021/10/02 04:21:25;;;;;;;;;2.00;2.00;;;;;24.85;40.87;101006.09;5073886;28;45489;-66
2021/10/02 04:23:51;;;;;;;;;2.00;2.00;;;;;24.85;41.01;101000.78;5074272;28;45428;-67
2021/10/02 04:26:18;;;;;;;;;3.00;3.00;;;;;24.87;40.81;100997.91;5072627;28;45212;-66
2021/10/02 04:28:43;;;;;;;;;2.75;1.50;;;;;24.85;41.08;100984.81;5073843;27;45454;-67
2021/10/02 04:31:09;;;;;;;;;3.33;1.67;;;;;24.76;41.00;100970.00;5073840;27;45437;-67
2021/10/02 04:33:35;;;;;;;;;1.75;1.75;;;;;24.84;40.99;100976.00;5073943;27;45434;-67
2021/10/02 04:36:01;;;;;;;;;2.00;2.00;;;;;24.80;40.75;100963.31;5074320;27;45221;-67
2021/10/02 04:38:26;;;;;;;;;1.00;1.00;;;;;24.84;40.94;100973.34;5075492;28;45457;-67
2021/10/02 04:40:54;;;;;;;;;3.00;1.00;;;;;24.81;40.93;100970.25;5073713;27;47177;-67
2021/10/02 04:43:22;;;;;;;;;1.00;1.00;;;;;24.83;41.17;100953.06;5073874;27;45517;-67
2021/10/02 04:45:49;;;;;;;;;3.00;3.00;;;;;24.84;40.98;100941.41;5086587;27;45416;-67
2021/10/02 04:48:14;;;;;;;;;1.33;1.33;;;;;24.73;40.88;100921.50;5072641;27;45543;-67
2021/10/02 04:50:40;;;;;;;;;2.75;2.00;;;;;24.84;40.91;100929.94;5077122;28;45346;-67
2021/10/02 04:53:05;;;;;;;;;1.50;1.50;;;;;24.83;40.95;100937.09;5075638;27;45266;-67
2021/10/02 04:55:31;;;;;;;;;1.00;0.00;;;;;24.82;40.69;100932.81;5077295;27;45330;-67
2021/10/02 04:57:57;;;;;;;;;1.00;1.00;;;;;24.84;41.13;100925.44;5077425;27;45455;-67
2021/10/02 05:00:22;;;;;;;;;2.00;1.00;;;;;24.61;40.87;100884.00;5077144;27;46281;-68
2021/10/02 05:02:47;;;;;;;;;1.67;1.00;;;;;24.84;40.67;100909.50;5079076;27;45371;-67
2021/10/02 05:05:13;;;;;;;;;1.00;1.00;;;;;24.74;41.18;100904.53;5077349;28;45220;-67
2021/10/02 05:07:38;;;;;;;;;2.00;2.00;;;;;24.80;40.68;100921.53;5077187;27;45517;-67
2021/10/02 05:10:04;;;;;;;;;1.50;1.50;;;;;24.83;41.04;100925.63;5074021;28;45461;-67
2021/10/02 05:12:29;;;;;;;;;3.00;1.50;;;;;24.82;40.63;100927.50;5077074;27;45525;-67
2021/10/02 05:14:55;;;;;;;;;1.50;1.50;;;;;24.82;40.73;100935.47;5078565;27;45568;-67
2021/10/02 05:17:20;;;;;;;;;1.00;1.00;;;;;24.82;40.85;100929.31;5077620;28;45454;-65
2021/10/02 05:19:46;;;;;;;;;2.00;2.00;;;;;24.81;40.88;100909.03;5076760;27;47094;-67
2021/10/02 05:22:11;;;;;;;;;2.00;1.00;;;;;24.81;40.83;100912.53;5076014;27;45295;-66
2021/10/02 05:24:37;;;;;;;;;1.75;1.75;;;;;24.81;41.00;100925.84;5077094;27;45505;-65
2021/10/02 05:27:08;;;;;;;;;1.00;1.00;;;;;24.81;40.88;100914.38;5077547;27;45326;-67
2021/10/02 05:29:35;;;;;;;;;1.75;1.75;;;;;24.71;40.81;100904.91;5077142;28;47008;-67
2021/10/02 05:32:02;;;;;;;;;1.67;0.67;;;;;24.80;41.20;100913.53;5074755;27;45611;-67
2021/10/02 05:34:27;;;;;;;;;1.00;1.00;;;;;24.80;41.16;100918.88;5076667;27;45386;-67
2021/10/02 05:36:53;;;;;;;;;2.25;2.25;;;;;24.80;40.58;100912.75;5076744;27;45435;-67
2021/10/02 05:39:18;;;;;;;;;2.00;2.00;;;;;24.79;40.90;100897.78;5076700;27;50150;-67
2021/10/02 05:41:43;;;;;;;;;1.00;1.00;;;;;24.79;40.87;100898.63;5078602;28;45324;-67
2021/10/02 05:44:09;;;;;;;;;2.00;2.00;;;;;24.78;40.72;100893.47;5081933;27;45534;-67
2021/10/02 05:46:34;;;;;;;;;1.67;1.33;;;;;24.77;41.14;100884.69;5076133;27;45504;-67
2021/10/02 05:49:00;;;;;;;;;2.00;2.00;;;;;24.76;41.19;100893.69;5076651;27;45676;-67
2021/10/02 05:51:25;;;;;;;;;1.75;1.75;;;;;24.78;40.94;100898.78;5075849;27;45500;-65
2021/10/02 05:53:51;;;;;;;;;0.67;0.67;;;;;24.70;40.76;100886.47;5077553;27;45581;-67
2021/10/02 05:56:16;;;;;;;;;1.00;1.00;;;;;24.76;41.07;100904.31;5075371;28;45386;-66
2021/10/02 05:58:42;;;;;;;;;2.00;2.00;;;;;24.76;40.80;100901.66;5075922;27;45354;-67
2021/10/02 06:01:07;;;;;;;;;1.00;1.00;;;;;24.78;40.73;100901.47;5075621;27;45397;-67
2021/10/02 06:03:33;;;;;;;;;1.00;1.00;;;;;24.77;40.93;100889.19;5076561;27;45362;-67
2021/10/02 06:06:00;;;;;;;;;2.33;1.00;;;;;24.76;40.91;100880.38;5077130;27;45330;-67
2021/10/02 06:08:27;;;;;;;;;1.00;1.00;;;;;24.78;40.61;100875.69;5075685;27;47064;-67
2021/10/02 06:10:52;;;;;;;;;3.50;2.00;;;;;24.70;40.54;100865.19;5074342;27;45447;-67
2021/10/02 06:13:17;;;;;;;;;1.00;1.00;;;;;24.74;40.81;100853.97;5076062;27;45365;-67
2021/10/02 06:15:42;;;;;;;;;1.00;1.00;;;;;24.79;40.73;100861.38;5075960;27;45261;-66
2021/10/02 06:18:08;;;;;;;;;1.00;1.00;;;;;24.78;40.40;100867.69;5076252;27;45327;-68
2021/10/02 06:20:33;;;;;;;;;1.00;1.00;;;;;24.73;40.91;100859.47;5077916;28;45433;-68
2021/10/02 06:23:03;;;;;;;;;2.00;2.00;;;;;24.79;40.69;100877.31;5076169;27;45351;-65
2021/10/02 06:25:28;;;;;;;;;0.00;0.00;;;;;24.79;40.55;100879.16;5076039;27;45491;-67
2021/10/02 06:27:53;;;;;;;;;2.75;2.75;;;;;24.73;40.59;100883.44;5075841;27;45387;-67
2021/10/02 06:30:19;;;;;;;;;2.00;2.00;;;;;24.78;40.65;100883.66;5075718;27;45449;-67
2021/10/02 06:32:44;;;;;;;;;1.00;1.00;;;;;24.79;40.56;100879.16;5077925;28;45428;-67
2021/10/02 06:35:09;;;;;;;;;1.00;1.00;;;;;24.71;41.00;100867.69;5075871;27;47387;-67
2021/10/02 06:37:35;;;;;;;;;1.00;1.00;;;;;24.78;40.84;100874.84;5075629;27;45369;-67
2021/10/02 06:40:01;;;;;;;;;1.33;1.33;;;;;24.70;40.67;100854.56;5075876;27;45570;-67
2021/10/02 06:42:26;;;;;;;;;1.33;1.00;;;;;24.69;40.59;100851.09;5075802;27;45821;-67
2021/10/02 06:44:52;;;;;;;;;1.00;1.00;;;;;24.78;41.08;100862.38;5076646;27;45356;-67
2021/10/02 06:47:17;;;;;;;;;1.00;1.00;;;;;24.76;40.94;100851.13;5074764;28;45336;-67
2021/10/02 06:49:42;;;;;;;;;1.00;1.00;;;;;24.77;40.77;100850.09;5073773;27;45632;-67
2021/10/02 06:52:08;;;;;;;;;1.00;1.00;;;;;24.76;40.69;100843.13;5075739;27;45579;-67
2021/10/02 06:54:33;;;;;;;;;1.33;1.00;;;;;24.75;40.73;100838.81;5075661;27;45458;-68
2021/10/02 06:56:58;;;;;;;;;0.75;0.75;;;;;24.75;40.44;100844.13;5076448;27;46968;-66
2021/10/02 06:59:25;;;;;;;;;2.00;1.00;;;;;24.75;40.51;100838.81;5076119;28;45477;-66
2021/10/02 07:01:51;;;;;;;;;5.33;1.00;;;;;24.74;40.97;100832.69;5075494;27;45557;-67
2021/10/02 07:04:16;;;;;;;;;0.00;0.00;;;;;24.63;41.04;100814.63;5075385;27;45283;-67
2021/10/02 07:06:42;;;;;;;;;0.67;0.00;;;;;24.73;40.63;100823.06;5074524;27;46228;-67
2021/10/02 07:09:07;;;;;;;;;2.00;1.75;;;;;24.73;40.93;100828.38;5075264;27;45553;-67
2021/10/02 07:11:32;;;;;;;;;0.00;0.00;;;;;24.62;40.93;100808.50;5075506;28;45651;-67
2021/10/02 07:13:57;;;;;;;;;1.75;1.75;;;;;24.72;40.65;100817.94;5063832;28;45524;-67
2021/10/02 07:16:23;;;;;;;;;1.00;1.00;;;;;24.71;40.67;100809.16;5066363;28;46911;-67
2021/10/02 07:18:48;;;;;;;;;1.00;1.00;;;;;24.69;40.81;100810.38;5059277;28;45460;-67
2021/10/02 07:21:13;;;;;;;;;3.00;1.00;;;;;24.72;40.68;100808.09;5058567;28;45362;-65
2021/10/02 07:23:39;;;;;;;;;2.00;2.00;;;;;24.72;41.04;100807.31;5057693;27;45391;-67
2021/10/02 07:26:06;;;;;;;;;1.00;1.00;;;;;24.72;41.03;100802.00;5062566;28;45452;-67
2021/10/02 07:28:32;;;;;;;;;1.00;1.00;;;;;24.73;40.60;100796.47;5061700;28;45424;-67
2021/10/02 07:30:57;;;;;;;;;0.67;0.67;;;;;24.73;41.02;100785.00;5062488;28;45460;-67
2021/10/02 07:33:22;;;;;;;;;0.00;0.00;;;;;24.73;40.69;100775.19;5058484;28;45182;-67
2021/10/02 07:35:48;;;;;;;;;1.00;1.00;;;;;24.66;40.82;100766.34;5060640;28;45230;-67
2021/10/02 07:38:13;;;;;;;;;2.00;2.00;;;;;24.66;40.78;100760.22;5062253;28;45430;-67
2021/10/02 07:40:39;;;;;;;;;0.67;0.33;;;;;24.66;40.93;100755.72;5064006;28;45347;-67
2021/10/02 07:43:05;;;;;;;;;2.00;0.67;;;;;24.74;40.86;100758.19;5068385;28;45411;-67
2021/10/02 07:45:31;;;;;;;;;1.00;1.00;;;;;24.69;40.84;100749.19;5058761;28;46342;-68
2021/10/02 07:47:57;;;;;;;;;1.00;1.00;;;;;24.74;40.80;100746.75;5056663;28;45407;-67
2021/10/02 07:50:24;;;;;;;;;1.00;1.00;;;;;24.74;41.00;100733.44;5058563;28;45323;-67
2021/10/02 07:52:54;;;;;;;;;1.00;1.00;;;;;24.74;40.43;100731.59;5071211;28;45425;-67
2021/10/02 07:55:19;;;;;;;;;3.75;1.00;;;;;24.71;40.95;100734.66;5070006;27;46235;-67
2021/10/02 07:57:47;;;;;;;;;0.67;0.67;;;;;24.72;40.45;100722.97;5074012;27;45474;-67
2021/10/02 08:00:16;;;;;;;;;1.00;1.00;;;;;24.73;40.68;100724.63;5074650;27;45410;-68
2021/10/02 08:02:52;;;;;;;;;1.00;1.00;;;;;24.74;40.74;100720.13;5076416;27;45292;-67
2021/10/02 08:05:18;;;;;;;;;1.00;1.00;;;;;24.75;40.63;100713.78;5075533;28;46065;-67
2021/10/02 08:07:46;;;;;;;;;2.00;1.00;;;;;24.74;40.89;100709.50;5072750;27;45411;-67
2021/10/02 08:10:13;;;;;;;;;1.00;1.00;;;;;24.65;41.08;100690.22;5074255;27;45382;-68
2021/10/02 08:12:39;;;;;;;;;0.67;0.67;;;;;24.70;40.89;100703.75;5074083;27;45240;-67
2021/10/02 08:15:07;;;;;;;;;3.00;1.00;;;;;24.72;40.80;100707.00;5074427;27;45375;-68
2021/10/02 08:17:35;;;;;;;;;1.00;1.00;;;;;24.72;40.55;100701.69;5076240;28;45215;-67
2021/10/02 08:20:08;;;;;;;;;1.00;1.00;;;;;24.72;40.72;100699.03;5074308;27;45394;-67
2021/10/02 08:22:37;;;;;;;;;3.00;2.25;;;;;24.72;40.59;100700.91;5074062;27;45521;-67
2021/10/02 08:25:03;;;;;;;;;2.00;1.00;;;;;24.54;40.87;100667.69;5074150;27;46057;-67
2021/10/02 08:27:30;;;;;;;;;3.00;2.00;;;;;24.71;40.61;100697.41;5073815;27;45522;-66
2021/10/02 08:29:56;;;;;;;;;1.33;1.00;;;;;24.63;40.30;100685.13;5075767;27;45405;-67
2021/10/02 08:32:22;;;;;;;;;0.00;0.00;;;;;24.71;40.46;100694.75;5074878;28;45371;-67
2021/10/02 08:34:48;;;;;;;;;2.00;1.00;;;;;24.71;40.89;100673.47;5073921;27;45313;-67
2021/10/02 08:37:13;;;;;;;;;1.00;1.00;;;;;24.70;40.74;100673.66;5073943;27;45457;-67
2021/10/02 08:39:39;;;;;;;;;1.67;1.67;;;;;24.70;40.93;100669.16;5074193;27;45433;-66
2021/10/02 08:42:04;;;;;;;;;2.00;1.00;;;;;24.70;40.78;100668.34;5074419;27;45295;-67
2021/10/02 08:44:32;;;;;;;;;1.67;0.33;;;;;24.70;40.53;100674.47;5073658;28;46307;-67
2021/10/02 08:46:59;;;;;;;;;0.67;0.00;;;;;24.70;40.97;100669.16;5072133;27;45416;-66
2021/10/02 08:49:44;;;;;;;;;2.00;0.67;;;;;24.71;40.69;100662.00;5073859;27;45578;-66
2021/10/02 08:52:12;;;;;;;;;1.00;1.00;;;;;24.70;40.73;100674.47;5057940;28;45588;-67
2021/10/02 08:54:41;;;;;;;;;3.00;1.33;;;;;24.69;40.51;100662.22;5057466;28;47224;-65
2021/10/02 08:57:09;;;;;;;;;1.00;1.00;;;;;24.71;40.76;100656.69;5055942;28;45544;-67
2021/10/02 08:59:37;;;;;;;;;1.00;1.00;;;;;24.57;40.59;100634.56;5073264;27;45374;-67
2021/10/02 09:02:04;;;;;;;;;1.00;1.00;;;;;24.68;40.89;100638.47;5059165;28;45533;-67
2021/10/02 09:04:30;;;;;;;;;0.33;0.33;;;;;24.67;40.90;100621.69;5061058;28;46313;-67
2021/10/02 09:06:55;;;;;;;;;3.00;1.00;;;;;24.66;40.61;100612.06;5061144;28;45259;-67
2021/10/02 09:09:21;;;;;;;;;0.67;0.67;;;;;24.62;40.79;100598.34;5057876;27;45766;-67
2021/10/02 09:11:47;;;;;;;;;1.00;1.00;;;;;24.69;40.72;100614.34;5071735;27;45542;-67
2021/10/02 09:14:12;;;;;;;;;2.00;1.33;;;;;24.71;40.79;100614.94;5073018;27;45471;-67
2021/10/02 09:16:40;;;;;;;;;2.00;2.00;;;;;24.71;41.02;100614.94;5066019;27;45559;-67
2021/10/02 09:19:10;;;;;;;;;1.00;1.00;;;;;24.72;40.59;100602.47;5074885;27;45344;-66
2021/10/02 09:21:56;;;;;;;;;2.00;2.00;;;;;24.68;40.92;100583.41;5070735;27;45532;-68
2021/10/02 09:24:30;;;;;;;;;5.00;2.00;;;;;24.72;40.80;100597.94;5073181;27;46375;-69
2021/10/02 09:26:57;;;;;;;;;0.67;0.67;;;;;24.73;40.67;100588.13;5072071;27;45397;-68
2021/10/02 09:29:40;;;;;;;;;0.00;0.00;;;;;24.73;40.67;100580.97;5075430;27;45562;-68
2021/10/02 09:32:11;;;;;;;;;2.33;1.33;;;;;24.68;39.83;100579.94;5071842;27;45457;-66
2021/10/02 09:34:46;;;;;;;;;1.67;1.67;;;;;24.46;40.01;100569.50;5073551;27;46727;-67
2021/10/02 09:37:20;;;;;;;;;2.33;1.00;;;;;24.17;40.18;100564.34;5077544;27;45322;-68
2021/10/02 09:39:47;;;;;;;;;2.50;2.00;;;;;23.94;40.09;100555.69;5074902;27;45485;-67
2021/10/02 09:42:21;;;;;;;;;3.00;1.50;;;;;23.70;40.74;100535.78;5077954;27;45669;-67
2021/10/02 09:44:46;;;;;;;;;1.00;1.00;;;;;23.47;40.58;100545.66;5066819;27;46288;-66
2021/10/02 09:47:19;;;;;;;;;2.00;2.00;;;;;23.26;41.02;100528.81;5077207;27;45216;-67
2021/10/02 09:49:46;;;;;;;;;1.00;1.00;;;;;23.10;41.40;100522.03;5076264;27;45464;-67
2021/10/02 09:52:37;;;;;;;;;2.50;1.00;;;;;22.94;41.91;100496.63;5077875;27;48247;-66
2021/10/02 09:55:16;;;;;;;;;1.00;1.00;;;;;22.78;41.97;100497.72;5076674;27;46232;-67
2021/10/02 09:57:44;;;;;;;;;4.33;2.00;;;;;22.69;42.38;100489.09;5074236;27;45696;-67
2021/10/02 10:00:13;;;;;;;;;3.25;1.75;;;;;22.61;42.29;100498.00;5078604;27;45518;-67
2021/10/02 10:02:41;;;;;;;;;2.25;2.25;;;;;22.51;42.77;100514.22;5078094;27;45461;-65
2021/10/02 10:05:07;;;;;;;;;3.00;1.00;;;;;22.43;42.83;100511.72;5073213;27;45489;-65
2021/10/02 10:07:33;;;;;;;;;2.00;1.00;;;;;22.33;43.11;100512.06;5072889;27;45510;-65
2021/10/02 10:10:18;;;;;;;;;3.00;1.00;;;;;22.23;43.34;100504.41;5079918;27;45412;-65
2021/10/02 10:12:45;;;;;;;;;1.00;1.00;;;;;22.14;43.45;100499.25;5075444;27;45734;-66
2021/10/02 10:15:36;;;;;;;;;2.00;2.00;;;;;22.05;43.63;100482.66;5076172;27;47057;-66
2021/10/02 10:18:02;;;;;;;;;1.50;1.50;;;;;21.89;43.32;100467.81;5076498;27;45434;-65
2021/10/02 10:20:35;;;;;;;;;5.50;2.25;;;;;21.90;43.56;100480.06;5074119;27;45550;-65
2021/10/02 10:23:02;;;;;;;;;1.75;1.75;;;;;21.92;43.59;100477.22;5076968;27;45887;-65
2021/10/02 10:25:28;;;;;;;;;5.50;1.25;;;;;21.88;43.77;100470.69;5073182;27;46313;-64
2021/10/02 10:27:58;;;;;;;;;2.00;1.00;;;;;21.84;44.32;100470.19;5071767;27;45371;-65
2021/10/02 10:30:26;;;;;;;;;2.50;2.50;;;;;21.81;43.85;100466.09;5077385;27;45349;-65
2021/10/02 10:33:08;;;;;;;;;2.00;2.00;;;;;21.84;44.20;100449.00;5076070;27;45450;-65
2021/10/02 10:35:37;;;;;;;;;2.00;2.00;;;;;21.78;44.08;100442.63;5077207;27;46330;-65
2021/10/02 10:38:06;;;;;;;;;2.25;2.25;;;;;21.90;44.10;100436.88;5076229;27;45608;-64
2021/10/02 10:40:32;;;;;;;;;3.75;0.75;;;;;22.04;44.06;100438.63;5075074;27;45536;-65
2021/10/02 10:42:57;;;;;;;;;6.00;2.00;;;;;22.21;43.30;100419.81;5076886;27;45540;-65
2021/10/02 10:45:24;;;;;;;;;1.25;1.25;;;;;22.38;44.02;100408.91;5072206;27;48263;-64
2021/10/02 10:47:50;;;;;;;;;2.75;1.00;;;;;22.53;43.68;100406.19;5077238;27;45499;-64
2021/10/02 10:50:17;;;;;;;;;3.75;1.00;;;;;22.67;43.88;100395.63;5075960;27;45480;-64
2021/10/02 10:52:43;;;;;;;;;4.50;1.00;;;;;22.80;43.62;100387.78;5075747;27;45602;-64
2021/10/02 10:55:23;;;;;;;;;1.00;1.00;;;;;22.94;43.20;100369.28;5076746;27;47041;-64
2021/10/02 10:57:53;;;;;;;;;1.75;1.75;;;;;23.05;42.95;100362.59;5072257;27;45399;-64
2021/10/02 11:00:32;;;;;;;;;1.25;1.25;;;;;23.15;43.13;100365.69;5077318;27;45491;-64
2021/10/02 11:03:04;;;;;;;;;1.50;1.50;;;;;23.25;42.81;100349.38;5074474;27;45501;-64
2021/10/02 11:05:35;;;;;;;;;2.00;0.67;;;;;23.34;42.71;100341.22;5076978;27;46305;-64
2021/10/02 11:08:06;;;;;;;;;1.67;1.67;;;;;23.41;42.82;100347.38;5075501;27;45498;-65
2021/10/02 11:10:44;;;;;;;;;1.00;1.00;;;;;23.50;42.83;100335.56;5070761;27;46085;-64
2021/10/02 11:13:33;;;;;;;;;3.00;2.00;;;;;23.58;42.26;100323.91;5072974;27;45584;-65
2021/10/02 11:16:31;;;;;;;;;1.33;0.00;;;;;23.66;42.55;100311.44;5065626;27;45619;-64
2021/10/02 11:18:57;;;;;;;;;1.00;1.00;;;;;23.71;42.48;100311.66;5071771;27;45466;-63
2021/10/02 11:21:29;;;;;;;;;1.25;1.25;;;;;23.77;42.43;100315.34;5076134;27;45600;-65
2021/10/02 11:24:01;;;;;;;;;0.33;0.33;;;;;23.81;42.84;100292.66;5076623;27;45574;-64
2021/10/02 11:26:48;;;;;;;;;1.67;1.67;;;;;23.85;42.20;100291.22;5076015;27;46124;-64
2021/10/02 11:29:15;;;;;;;;;3.33;1.33;;;;;23.91;42.17;100276.31;5076343;27;45375;-64
2021/10/02 11:31:41;;;;;;;;;2.00;2.00;;;;;23.96;42.08;100273.84;5074786;27;45419;-64
2021/10/02 11:34:18;;;;;;;;;1.00;1.00;;;;;23.99;41.95;100262.00;5074905;27;45374;-65
2021/10/02 11:36:46;;;;;;;;;2.00;2.00;;;;;24.02;41.88;100259.72;5074330;27;46195;-65
2021/10/02 11:39:21;;;;;;;;;3.33;1.00;;;;;24.06;42.05;100254.81;5074324;27;45350;-66
2021/10/02 11:41:53;;;;;;;;;1.00;1.00;;;;;24.09;41.88;100250.91;5076192;27;47083;-66
2021/10/02 11:44:36;;;;;;;;;1.25;0.75;;;;;24.12;41.52;100255.81;5076456;27;45469;-66
2021/10/02 11:47:38;;;;;;;;;1.00;1.00;;;;;24.15;41.59;100250.06;5072918;27;46033;-66
2021/10/02 11:50:06;;;;;;;;;1.00;1.00;;;;;24.17;41.59;100230.22;5072445;27;45274;-65
2021/10/02 11:52:55;;;;;;;;;1.00;1.00;;;;;24.19;41.52;100216.75;5074051;27;48073;-65
2021/10/02 11:55:32;;;;;;;;;0.67;0.67;;;;;24.23;41.75;100211.81;5075443;27;45501;-66
2021/10/02 11:58:07;;;;;;;;;1.00;1.00;;;;;24.26;41.58;100208.75;5071743;27;48874;-66
2021/10/02 12:01:00;;;;;;;;;1.67;0.33;;;;;24.28;41.92;100180.94;5075555;27;45537;-66
2021/10/02 12:03:25;;;;;;;;;0.67;0.67;;;;;24.30;41.54;100175.44;5073166;27;45585;-65
2021/10/02 12:05:52;;;;;;;;;1.00;1.00;;;;;24.25;41.82;100162.72;5076114;27;45543;-64
2021/10/02 12:08:19;;;;;;;;;1.00;1.00;;;;;24.25;41.38;100135.34;5074870;27;46011;-66
2021/10/02 12:10:52;;;;;;;;;1.00;1.00;;;;;24.37;41.63;100151.47;5054799;27;45384;-65
2021/10/02 12:13:30;;;;;;;;;1.00;1.00;;;;;24.41;41.40;100131.38;5073437;27;45414;-65
2021/10/02 12:15:59;;;;;;;;;3.75;1.75;;;;;24.42;41.39;100106.44;5072189;27;45609;-66
2021/10/02 12:18:25;;;;;;;;;3.00;1.00;;;;;24.43;41.27;100078.84;5074844;27;46239;-65
2021/10/02 12:20:50;;;;;;;;;2.00;1.00;;;;;24.47;41.29;100060.59;5074144;27;45473;-66
2021/10/02 12:23:16;;;;;;;;;1.00;1.00;;;;;24.48;41.60;100054.25;5073970;27;45778;-66
2021/10/02 12:25:41;;;;;;;;;1.00;1.00;;;;;24.50;41.69;100054.84;5074452;27;45361;-66